Time;durP1;ratioP1;P1;durP2;ratioP2;P2;SDS_P1;SDS_P2;PMS_P1;PMS_P2;Temp;Humidity;BMP_temperature;BMP_pressure;BME280_temperature;BME280_humidity;BME280_pressure;Samples;Min_cycle;Max_cycle;Signal;HPM_P1;HPM_P2
2022/09/07 00:00:30;;;;;;;3.78;3.03;;;14.90;61.10;;;;;;5071834;28;20039;-56
2022/09/07 00:02:55;;;;;;;3.65;3.08;;;14.90;60.60;;;;;;5077020;28;20040;-56
2022/09/07 00:05:21;;;;;;;3.95;3.03;;;14.90;60.50;;;;;;5079519;28;20412;-55
2022/09/07 00:07:46;;;;;;;3.10;2.78;;;14.90;60.70;;;;;;5070920;28;20044;-55
2022/09/07 00:10:12;;;;;;;4.65;3.42;;;14.80;60.70;;;;;;5080655;28;20035;-55
2022/09/07 00:12:38;;;;;;;4.60;3.38;;;14.80;60.70;;;;;;5082381;28;20099;-54
2022/09/07 00:15:08;;;;;;;4.78;3.42;;;14.70;60.70;;;;;;5077750;28;20028;-56
2022/09/07 00:17:34;;;;;;;5.28;3.75;;;14.70;60.70;;;;;;5076505;28;20094;-55
2022/09/07 00:20:00;;;;;;;5.15;3.60;;;14.60;60.80;;;;;;5069162;28;20033;-55
2022/09/07 00:22:26;;;;;;;5.20;3.97;;;14.50;60.80;;;;;;5078906;28;20031;-55
2022/09/07 00:24:51;;;;;;;5.03;3.65;;;14.40;60.90;;;;;;5073310;28;20500;-56
2022/09/07 00:27:17;;;;;;;4.70;3.38;;;14.40;61.00;;;;;;5071180;28;20412;-55
2022/09/07 00:29:42;;;;;;;5.32;3.70;;;14.30;60.90;;;;;;5070483;28;20032;-55
2022/09/07 00:32:08;;;;;;;4.97;3.47;;;14.30;60.90;;;;;;5072238;28;20073;-55
2022/09/07 00:34:34;;;;;;;4.82;3.70;;;14.20;60.90;;;;;;5067612;28;20029;-55
2022/09/07 00:36:59;;;;;;;5.57;3.80;;;14.10;60.90;;;;;;5075354;28;20024;-55
2022/09/07 00:39:25;;;;;;;5.43;3.35;;;14.10;61.00;;;;;;5079451;28;20032;-56
2022/09/07 00:41:51;;;;;;;6.05;3.63;;;14.00;60.90;;;;;;5081047;28;20052;-54
2022/09/07 00:44:55;;;;;;;5.13;3.50;;;14.00;60.90;;;;;;5076615;28;20036;-55
2022/09/07 00:47:59;;;;;;;3.88;3.20;;;14.00;60.90;;;;;;5061493;28;20123;-54
2022/09/07 00:50:33;;;;;;;4.57;3.33;;;13.90;60.80;;;;;;5079196;28;20064;-55
2022/09/07 00:53:12;;;;;;;5.20;3.08;;;13.90;60.90;;;;;;5079551;28;20039;-55
2022/09/07 00:55:41;;;;;;;5.07;3.35;;;13.90;60.90;;;;;;5071111;28;20112;-55
2022/09/07 00:58:08;;;;;;;3.78;3.28;;;13.90;60.90;;;;;;5072843;28;20119;-56
2022/09/07 01:00:34;;;;;;;5.18;3.35;;;13.90;60.90;;;;;;5074193;28;20086;-55
2022/09/07 01:03:00;;;;;;;4.18;3.20;;;13.90;60.80;;;;;;5075444;28;20088;-55
2022/09/07 01:05:49;;;;;;;4.45;3.15;;;13.90;60.90;;;;;;5074112;28;20044;-55
2022/09/07 01:08:17;;;;;;;3.58;3.15;;;13.90;60.80;;;;;;5070419;28;20394;-56
2022/09/07 01:10:42;;;;;;;3.65;3.10;;;13.90;60.80;;;;;;5073117;28;20040;-55
2022/09/07 01:13:09;;;;;;;4.43;3.47;;;13.90;60.80;;;;;;5079823;28;20099;-54
2022/09/07 01:15:42;;;;;;;4.95;3.55;;;13.90;60.80;;;;;;5081082;28;20020;-56
2022/09/07 01:18:35;;;;;;;5.05;3.30;;;13.90;60.70;;;;;;5072971;28;20064;-55
2022/09/07 01:21:20;;;;;;;4.10;2.97;;;13.90;60.70;;;;;;5075996;28;20028;-55
2022/09/07 01:24:10;;;;;;;3.55;2.92;;;13.90;60.70;;;;;;5073670;28;20036;-54
2022/09/07 01:27:20;;;;;;;3.72;2.90;;;13.90;61.30;;;;;;5075271;28;20025;-55
2022/09/07 01:29:57;;;;;;;3.38;2.60;;;13.90;60.70;;;;;;5007309;28;20034;-55
2022/09/07 01:32:46;;;;;;;3.17;2.80;;;13.90;60.60;;;;;;5018019;28;20108;-55
2022/09/07 01:35:23;;;;;;;3.35;2.88;;;13.90;60.50;;;;;;5053801;28;20059;-54
2022/09/07 01:38:17;;;;;;;3.30;2.53;;;13.90;60.40;;;;;;5077136;28;20523;-55
2022/09/07 01:40:56;;;;;;;3.60;2.83;;;13.90;60.40;;;;;;5067620;28;20064;-55
2022/09/07 01:43:45;;;;;;;2.70;2.30;;;13.90;60.40;;;;;;5078223;28;20408;-54
2022/09/07 01:46:21;;;;;;;3.33;2.83;;;13.90;60.30;;;;;;5088173;28;20040;-55
2022/09/07 01:48:52;;;;;;;3.63;2.63;;;13.90;60.30;;;;;;5079233;28;20078;-56
2022/09/07 01:51:25;;;;;;;3.42;2.83;;;13.90;60.20;;;;;;5079337;28;20039;-55
2022/09/07 01:53:59;;;;;;;2.72;2.50;;;13.90;60.30;;;;;;5074888;28;20065;-55
2022/09/07 01:56:28;;;;;;;3.92;2.85;;;13.90;60.10;;;;;;5078005;28;20028;-56
2022/09/07 01:58:59;;;;;;;3.03;2.65;;;13.90;60.20;;;;;;5083290;28;20362;-54
2022/09/07 02:01:44;;;;;;;3.20;2.90;;;13.90;60.10;;;;;;5078821;28;20458;-55
2022/09/07 02:04:16;;;;;;;4.22;2.67;;;13.90;60.00;;;;;;5089501;28;20082;-55
2022/09/07 02:07:01;;;;;;;3.97;2.80;;;13.90;60.10;;;;;;5080318;28;20032;-55
2022/09/07 02:09:56;;;;;;;3.75;2.78;;;13.90;60.00;;;;;;5075717;28;20107;-53
2022/09/07 02:12:35;;;;;;;3.65;2.33;;;13.90;59.90;;;;;;5083363;28;20036;-55
2022/09/07 02:15:06;;;;;;;3.95;2.65;;;13.80;60.50;;;;;;5070669;28;20020;-54
2022/09/07 02:17:40;;;;;;;4.15;2.75;;;13.90;60.00;;;;;;5076341;28;20123;-54
2022/09/07 02:20:14;;;;;;;3.85;2.78;;;13.90;60.00;;;;;;5074887;28;20032;-52
2022/09/07 02:22:47;;;;;;;3.72;2.70;;;13.90;59.90;;;;;;5073466;28;20072;-55
2022/09/07 02:25:21;;;;;;;2.92;2.42;;;13.90;59.90;;;;;;5080458;28;20041;-55
2022/09/07 02:27:54;;;;;;;5.68;2.75;;;13.90;59.80;;;;;;5075979;28;20082;-55
2022/09/07 02:30:19;;;;;;;3.45;2.70;;;13.90;59.80;;;;;;5075537;28;20056;-55
2022/09/07 02:32:45;;;;;;;2.80;2.50;;;13.90;59.80;;;;;;5078228;28;20055;-54
2022/09/07 02:35:11;;;;;;;3.03;2.55;;;13.90;59.80;;;;;;5071766;28;20039;-54
2022/09/07 02:37:38;;;;;;;3.80;2.88;;;13.90;59.70;;;;;;5075547;28;20111;-55
2022/09/07 02:40:04;;;;;;;3.45;2.60;;;13.90;59.70;;;;;;5083183;28;20094;-56
2022/09/07 02:42:35;;;;;;;2.83;2.38;;;13.90;59.70;;;;;;5075041;28;20740;-55
2022/09/07 02:45:05;;;;;;;3.30;2.77;;;13.90;59.80;;;;;;5077277;28;20024;-55
2022/09/07 02:48:10;;;;;;;3.38;2.42;;;13.90;59.70;;;;;;5084746;28;20040;-55
2022/09/07 02:51:06;;;;;;;2.85;2.50;;;13.90;59.60;;;;;;5074909;28;20474;-55
2022/09/07 02:53:51;;;;;;;3.50;2.67;;;13.90;59.70;;;;;;5069518;28;20024;-55
2022/09/07 02:56:20;;;;;;;2.38;2.17;;;13.80;59.60;;;;;;5073818;28;20024;-55
2022/09/07 02:59:03;;;;;;;3.13;2.47;;;13.80;59.70;;;;;;5080821;28;20051;-55
2022/09/07 03:02:10;;;;;;;2.70;2.45;;;13.80;59.70;;;;;;5074283;28;20081;-55
2022/09/07 03:05:04;;;;;;;3.67;2.58;;;13.80;59.70;;;;;;5069229;28;20074;-55
2022/09/07 03:07:42;;;;;;;4.55;3.08;;;13.70;59.80;;;;;;5079032;28;20017;-55
2022/09/07 03:10:08;;;;;;;2.90;2.60;;;13.70;59.90;;;;;;5075603;28;20047;-55
2022/09/07 03:12:39;;;;;;;3.85;2.60;;;13.60;60.00;;;;;;5079262;28;20086;-55
2022/09/07 03:15:05;;;;;;;2.75;2.35;;;13.60;60.10;;;;;;5079334;28;20020;-55
2022/09/07 03:17:31;;;;;;;2.92;2.63;;;13.60;60.00;;;;;;5075238;28;20056;-55
2022/09/07 03:19:57;;;;;;;3.63;2.63;;;13.60;60.00;;;;;;5073740;28;20052;-55
2022/09/07 03:22:22;;;;;;;3.42;2.92;;;13.60;60.00;;;;;;5071403;28;20028;-55
2022/09/07 03:24:48;;;;;;;4.20;3.08;;;13.60;60.00;;;;;;5086476;28;20048;-54
2022/09/07 03:27:13;;;;;;;3.10;2.78;;;13.60;60.00;;;;;;5082195;28;20044;-55
2022/09/07 03:29:39;;;;;;;3.47;2.88;;;13.70;60.00;;;;;;5075806;28;20523;-55
2022/09/07 03:32:05;;;;;;;4.05;3.03;;;13.70;60.00;;;;;;5080233;28;20070;-54
2022/09/07 03:34:30;;;;;;;2.97;2.65;;;13.70;59.90;;;;;;5068113;28;20083;-54
2022/09/07 03:36:56;;;;;;;3.35;2.75;;;13.70;59.90;;;;;;5074339;28;20032;-55
2022/09/07 03:39:22;;;;;;;5.47;3.00;;;13.80;59.90;;;;;;5077642;28;20724;-56
2022/09/07 03:41:49;;;;;;;3.47;2.80;;;13.70;59.80;;;;;;5079055;28;20512;-55
2022/09/07 03:44:14;;;;;;;3.72;2.88;;;13.80;59.90;;;;;;5075392;28;20036;-55
2022/09/07 03:46:40;;;;;;;3.40;2.90;;;13.70;59.80;;;;;;5086897;28;20086;-55
2022/09/07 03:49:06;;;;;;;3.72;3.00;;;13.70;60.00;;;;;;5080381;28;20420;-55
2022/09/07 03:51:31;;;;;;;4.90;3.10;;;13.70;60.00;;;;;;5076241;28;20035;-55
2022/09/07 03:53:58;;;;;;;4.53;3.00;;;13.70;60.00;;;;;;5072968;28;20035;-55
2022/09/07 03:56:24;;;;;;;4.35;3.35;;;13.70;60.00;;;;;;5076465;28;20063;-55
2022/09/07 03:58:51;;;;;;;4.85;3.47;;;13.70;60.00;;;;;;5081655;28;20064;-55
2022/09/07 04:01:23;;;;;;;5.65;2.90;;;13.70;60.10;;;;;;5073771;28;20405;-55
2022/09/07 04:03:49;;;;;;;3.38;2.95;;;13.70;60.10;;;;;;5083234;28;20032;-53
2022/09/07 04:06:16;;;;;;;3.75;3.13;;;13.70;60.30;;;;;;5080342;28;20101;-55
2022/09/07 04:08:42;;;;;;;3.25;2.80;;;13.80;60.40;;;;;;5078535;28;20115;-55
2022/09/07 04:11:12;;;;;;;4.70;3.20;;;13.80;60.40;;;;;;5074612;28;20050;-55
2022/09/07 04:13:38;;;;;;;4.25;3.17;;;13.90;60.40;;;;;;5072063;28;20028;-55
2022/09/07 04:16:18;;;;;;;4.38;3.10;;;13.90;60.50;;;;;;5078115;28;20052;-54
2022/09/07 04:18:44;;;;;;;4.30;3.15;;;14.00;60.60;;;;;;5073180;28;20055;-56
2022/09/07 04:21:11;;;;;;;4.55;3.78;;;14.00;60.40;;;;;;5076673;28;20028;-55
2022/09/07 04:23:38;;;;;;;4.40;3.08;;;14.10;60.50;;;;;;5080021;28;20032;-55
2022/09/07 04:26:04;;;;;;;4.32;3.17;;;14.10;60.20;;;;;;5082433;28;20088;-55
2022/09/07 04:28:30;;;;;;;4.28;2.90;;;14.20;60.20;;;;;;5076303;28;20024;-55
2022/09/07 04:31:00;;;;;;;4.53;3.10;;;14.20;60.10;;;;;;5073849;28;20776;-55
2022/09/07 04:33:26;;;;;;;3.65;3.17;;;14.20;60.10;;;;;;5073254;28;20032;-54
2022/09/07 04:35:52;;;;;;;3.67;2.95;;;14.20;60.00;;;;;;5067483;28;20069;-55
2022/09/07 04:38:17;;;;;;;4.85;3.42;;;14.30;60.00;;;;;;5073873;28;20031;-54
2022/09/07 04:40:43;;;;;;;5.22;3.95;;;14.30;60.00;;;;;;5086604;28;20043;-55
2022/09/07 04:43:11;;;;;;;4.38;3.58;;;14.40;60.00;;;;;;5076240;28;20054;-55
2022/09/07 04:45:38;;;;;;;4.82;3.45;;;14.40;60.00;;;;;;5081741;28;20056;-55
2022/09/07 04:48:04;;;;;;;5.13;3.63;;;14.50;59.90;;;;;;5081185;28;20028;-55
2022/09/07 04:50:30;;;;;;;4.95;3.70;;;14.50;59.90;;;;;;5075694;28;20029;-55
2022/09/07 04:52:55;;;;;;;6.25;4.10;;;14.60;59.80;;;;;;5071088;28;20066;-55
2022/09/07 04:55:21;;;;;;;5.55;3.88;;;14.60;59.70;;;;;;5074364;28;20469;-56
2022/09/07 04:57:49;;;;;;;6.03;4.35;;;14.70;59.60;;;;;;5080466;28;20111;-55
2022/09/07 05:00:16;;;;;;;6.13;4.60;;;14.70;59.50;;;;;;5076704;28;20040;-55
2022/09/07 05:02:41;;;;;;;7.80;4.82;;;14.70;59.50;;;;;;5074295;28;20064;-55
2022/09/07 05:05:07;;;;;;;6.25;4.55;;;14.70;59.50;;;;;;5084096;28;20110;-54
2022/09/07 05:07:33;;;;;;;8.48;4.88;;;14.80;59.60;;;;;;5080399;28;20025;-55
2022/09/07 05:09:59;;;;;;;5.45;4.03;;;14.90;59.70;;;;;;5075981;28;20028;-54
2022/09/07 05:12:24;;;;;;;4.80;3.90;;;14.90;59.50;;;;;;5077776;28;20031;-55
2022/09/07 05:14:50;;;;;;;5.88;4.00;;;15.00;59.50;;;;;;5087533;28;20052;-55
2022/09/07 05:17:16;;;;;;;6.75;3.92;;;15.00;59.40;;;;;;5079513;28;20521;-56
2022/09/07 05:19:41;;;;;;;5.35;3.50;;;15.10;59.40;;;;;;5075895;28;20024;-55
2022/09/07 05:22:07;;;;;;;4.43;3.47;;;15.20;59.30;;;;;;5084638;28;20021;-56
2022/09/07 05:24:35;;;;;;;4.55;3.30;;;15.30;59.20;;;;;;5081076;28;20114;-55
2022/09/07 05:27:02;;;;;;;4.68;3.45;;;15.40;59.00;;;;;;5074691;28;20020;-55
2022/09/07 05:29:28;;;;;;;4.97;3.40;;;15.50;59.00;;;;;;5082528;28;20491;-55
2022/09/07 05:31:54;;;;;;;4.72;3.80;;;15.50;59.10;;;;;;5082067;28;20017;-53
2022/09/07 05:34:20;;;;;;;5.30;3.42;;;15.70;59.10;;;;;;5077644;28;20186;-55
2022/09/07 05:36:46;;;;;;;5.45;3.55;;;15.90;58.80;;;;;;5072723;28;20101;-55
2022/09/07 05:39:11;;;;;;;5.40;3.53;;;16.10;58.50;;;;;;5075326;28;20111;-56
2022/09/07 05:41:37;;;;;;;4.53;3.40;;;16.30;58.40;;;;;;5066840;28;20056;-56
2022/09/07 05:44:04;;;;;;;5.43;3.25;;;16.60;58.00;;;;;;5068832;28;20522;-56
2022/09/07 05:46:31;;;;;;;4.75;3.28;;;16.80;57.80;;;;;;5068717;28;20041;-56
2022/09/07 05:48:56;;;;;;;4.70;3.05;;;16.90;57.50;;;;;;5070114;28;20492;-55
2022/09/07 05:51:22;;;;;;;5.20;3.40;;;17.10;57.20;;;;;;5070049;28;20139;-57
2022/09/07 05:53:49;;;;;;;4.47;3.10;;;17.20;56.90;;;;;;5045369;28;20362;-55
2022/09/07 05:56:15;;;;;;;5.72;3.38;;;17.30;56.70;;;;;;5072045;28;20033;-55
2022/09/07 05:58:42;;;;;;;4.82;3.42;;;17.30;56.60;;;;;;5064311;28;20031;-55
2022/09/07 06:01:10;;;;;;;4.55;3.20;;;17.30;56.50;;;;;;5065304;28;20421;-54
2022/09/07 06:03:38;;;;;;;4.88;3.28;;;17.30;56.60;;;;;;5061621;28;20184;-54
2022/09/07 06:06:05;;;;;;;4.07;3.00;;;17.30;56.70;;;;;;5059436;28;20028;-53
2022/09/07 06:08:33;;;;;;;5.75;4.32;;;17.30;56.70;;;;;;5066611;28;20108;-54
2022/09/07 06:11:05;;;;;;;5.78;3.78;;;17.30;57.00;;;;;;5068712;28;20505;-55
2022/09/07 06:13:30;;;;;;;4.25;3.35;;;17.30;57.30;;;;;;5067744;28;20043;-55
2022/09/07 06:16:04;;;;;;;4.43;3.33;;;17.20;58.00;;;;;;5062678;28;20029;-55
2022/09/07 06:18:35;;;;;;;4.25;3.22;;;17.20;57.50;;;;;;5055164;28;20044;-54
2022/09/07 06:21:12;;;;;;;4.97;2.88;;;17.30;57.90;;;;;;5051873;28;20055;-54
2022/09/07 06:23:40;;;;;;;4.18;3.17;;;17.30;57.90;;;;;;5055358;28;20135;-52
2022/09/07 06:26:06;;;;;;;4.05;2.75;;;17.30;57.90;;;;;;5053318;28;20024;-55
2022/09/07 06:28:34;;;;;;;3.53;2.92;;;17.30;57.90;;;;;;5057725;28;20051;-54
2022/09/07 06:31:06;;;;;;;4.05;2.90;;;17.30;57.70;;;;;;5059004;28;20029;-53
2022/09/07 06:33:32;;;;;;;3.17;2.53;;;17.30;57.70;;;;;;5060443;28;20032;-57
2022/09/07 06:36:00;;;;;;;3.20;2.38;;;17.30;57.70;;;;;;5054552;28;20087;-55
2022/09/07 06:38:33;;;;;;;4.05;2.90;;;17.40;57.80;;;;;;5056217;28;20047;-50
2022/09/07 06:41:07;;;;;;;3.92;2.70;;;17.40;57.70;;;;;;5059426;28;20056;-54
2022/09/07 06:43:33;;;;;;;3.58;2.88;;;17.40;57.60;;;;;;5060881;28;20059;-53
2022/09/07 06:45:59;;;;;;;4.45;3.40;;;17.40;57.60;;;;;;5059113;28;20063;-53
2022/09/07 06:48:26;;;;;;;3.88;3.20;;;17.50;57.40;;;;;;5051175;28;20032;-54
2022/09/07 06:51:01;;;;;;;3.00;2.40;;;17.50;57.20;;;;;;5058771;28;20101;-55
2022/09/07 06:53:29;;;;;;;3.03;2.50;;;17.50;56.90;;;;;;5060795;28;20113;-55
2022/09/07 06:55:55;;;;;;;2.92;2.20;;;17.50;56.70;;;;;;5049851;28;20702;-54
2022/09/07 06:58:23;;;;;;;2.45;2.20;;;17.60;56.80;;;;;;5050730;28;20044;-54
2022/09/07 07:00:49;;;;;;;2.60;2.40;;;17.60;56.80;;;;;;5043510;28;20033;-54
2022/09/07 07:03:15;;;;;;;3.97;2.40;;;17.60;56.80;;;;;;5045645;28;20040;-53
2022/09/07 07:05:41;;;;;;;3.47;2.95;;;17.60;56.80;;;;;;5052871;28;20107;-52
2022/09/07 07:08:07;;;;;;;3.65;2.72;;;17.60;56.70;;;;;;5051022;28;20113;-53
2022/09/07 07:10:37;;;;;;;3.65;2.70;;;17.70;56.60;;;;;;5047917;28;20032;-53
2022/09/07 07:13:02;;;;;;;2.70;2.38;;;17.70;56.40;;;;;;5046302;28;20033;-53
2022/09/07 07:15:29;;;;;;;3.22;2.35;;;17.70;56.40;;;;;;5052690;28;20040;-54
2022/09/07 07:17:55;;;;;;;4.10;2.53;;;17.70;56.30;;;;;;5048272;28;20035;-54
2022/09/07 07:20:20;;;;;;;3.10;2.30;;;17.70;55.90;;;;;;5047370;28;20028;-54
2022/09/07 07:22:51;;;;;;;2.75;2.22;;;17.60;55.80;;;;;;5046932;28;20683;-54
2022/09/07 07:25:16;;;;;;;2.50;2.10;;;17.70;55.80;;;;;;5052486;28;20051;-53
2022/09/07 07:27:44;;;;;;;2.50;2.30;;;17.70;55.80;;;;;;5048076;28;20166;-52
2022/09/07 07:30:12;;;;;;;3.35;2.58;;;17.70;55.60;;;;;;5050759;28;20031;-53
2022/09/07 07:32:38;;;;;;;4.45;2.67;;;17.70;55.60;;;;;;5044795;28;20036;-54
2022/09/07 07:35:06;;;;;;;3.95;2.72;;;17.70;55.60;;;;;;5052055;28;20056;-54
2022/09/07 07:37:32;;;;;;;3.92;2.70;;;17.70;55.50;;;;;;5049450;28;20036;-53
2022/09/07 07:39:59;;;;;;;3.15;2.63;;;17.70;55.50;;;;;;5045829;28;20490;-55
2022/09/07 07:42:25;;;;;;;3.78;2.83;;;17.70;55.70;;;;;;5047874;28;20705;-54
2022/09/07 07:44:50;;;;;;;2.63;2.30;;;17.70;55.50;;;;;;5045414;28;20055;-52
2022/09/07 07:47:16;;;;;;;3.25;2.50;;;17.70;55.60;;;;;;5045969;28;20037;-55
2022/09/07 07:49:42;;;;;;;2.65;2.25;;;17.70;55.30;;;;;;5042509;28;20044;-50
2022/09/07 07:52:07;;;;;;;2.80;2.20;;;17.70;55.20;;;;;;5035246;28;20044;-51
2022/09/07 07:54:36;;;;;;;3.30;2.60;;;17.70;55.00;;;;;;5050340;28;20040;-54
2022/09/07 07:57:02;;;;;;;2.60;2.30;;;17.80;55.00;;;;;;5049241;28;20064;-52
2022/09/07 07:59:28;;;;;;;2.50;2.22;;;17.80;54.90;;;;;;5045386;28;20036;-53
2022/09/07 08:01:54;;;;;;;2.45;1.98;;;17.80;54.90;;;;;;5028912;28;20048;-53
2022/09/07 08:04:19;;;;;;;3.05;2.33;;;17.80;54.60;;;;;;5044206;28;20047;-52
2022/09/07 08:06:45;;;;;;;3.75;2.53;;;17.80;54.40;;;;;;5053330;28;20060;-55
2022/09/07 08:09:10;;;;;;;2.38;2.17;;;17.80;54.50;;;;;;5043541;28;20474;-52
2022/09/07 08:11:38;;;;;;;2.92;2.33;;;17.80;54.40;;;;;;5038064;28;20047;-53
2022/09/07 08:14:05;;;;;;;3.08;2.50;;;17.80;54.20;;;;;;5048269;28;20046;-55
2022/09/07 08:16:31;;;;;;;3.83;2.95;;;17.80;54.10;;;;;;5050563;28;20032;-54
2022/09/07 08:18:57;;;;;;;3.20;2.60;;;17.80;54.10;;;;;;5040372;28;20456;-53
2022/09/07 08:21:24;;;;;;;3.88;2.67;;;17.80;54.10;;;;;;5050414;28;20555;-55
2022/09/07 08:23:50;;;;;;;2.85;2.60;;;17.80;54.10;;;;;;5045571;28;20124;-55
2022/09/07 08:26:16;;;;;;;3.72;2.92;;;17.80;54.00;;;;;;5035248;28;20037;-51
2022/09/07 08:28:45;;;;;;;4.43;2.60;;;17.80;54.00;;;;;;5037145;28;20039;-53
2022/09/07 08:31:13;;;;;;;3.85;2.58;;;17.80;53.90;;;;;;5038017;28;20436;-55
2022/09/07 08:33:39;;;;;;;2.92;2.53;;;17.70;53.80;;;;;;5040744;28;20041;-54
2022/09/07 08:36:17;;;;;;;3.75;2.83;;;17.70;53.90;;;;;;5027834;28;20048;-55
2022/09/07 08:38:42;;;;;;;4.13;3.13;;;17.70;53.80;;;;;;5044601;28;20639;-52
2022/09/07 08:41:53;;;;;;;4.03;2.70;;;17.70;53.80;;;;;;5043750;28;20037;-54
2022/09/07 08:44:25;;;;;;;3.58;2.70;;;17.60;53.70;;;;;;5044662;28;20088;-56
2022/09/07 08:47:20;;;;;;;2.72;2.33;;;17.60;53.80;;;;;;5038869;28;20048;-54
2022/09/07 08:49:57;;;;;;;3.05;2.50;;;17.60;53.80;;;;;;5038457;28;20089;-55
2022/09/07 08:52:44;;;;;;;2.88;2.38;;;17.60;53.80;;;;;;5044279;28;20040;-53
2022/09/07 08:55:25;;;;;;;4.55;3.33;;;17.60;54.10;;;;;;5040180;28;20032;-54
2022/09/07 08:58:01;;;;;;;3.72;2.85;;;17.60;53.80;;;;;;5040892;28;20037;-54
2022/09/07 09:00:30;;;;;;;4.00;2.80;;;17.60;53.90;;;;;;5040531;28;20029;-55
2022/09/07 09:02:57;;;;;;;4.22;3.17;;;17.60;53.90;;;;;;5037040;28;20033;-53
2022/09/07 09:05:45;;;;;;;4.47;3.47;;;17.60;53.80;;;;;;5033276;28;20036;-54
2022/09/07 09:08:14;;;;;;;5.70;3.63;;;17.60;53.90;;;;;;5033952;28;20560;-51
2022/09/07 09:11:00;;;;;;;5.38;4.00;;;17.60;53.90;;;;;;5032974;28;20032;-52
2022/09/07 09:13:35;;;;;;;5.03;3.30;;;17.50;53.80;;;;;;5035305;28;20074;-51
2022/09/07 09:16:07;;;;;;;4.93;3.60;;;17.50;53.70;;;;;;5043030;28;20039;-52
2022/09/07 09:19:14;;;;;;;4.38;3.35;;;17.60;53.80;;;;;;5044890;28;20139;-51
2022/09/07 09:21:40;;;;;;;3.47;2.92;;;17.50;53.60;;;;;;5003249;28;20040;-53
2022/09/07 09:24:18;;;;;;;4.20;3.40;;;17.50;53.60;;;;;;5037735;28;20075;-54
2022/09/07 09:26:49;;;;;;;4.78;3.28;;;17.50;53.60;;;;;;5038232;28;20036;-54
2022/09/07 09:29:19;;;;;;;4.68;3.40;;;17.60;53.60;;;;;;5028115;28;20133;-54
2022/09/07 09:31:44;;;;;;;5.03;3.20;;;17.50;53.70;;;;;;5031303;28;20367;-54
2022/09/07 09:34:19;;;;;;;4.13;3.35;;;17.50;53.50;;;;;;5039264;28;20047;-54
2022/09/07 09:36:46;;;;;;;4.07;3.22;;;17.50;53.40;;;;;;5036613;28;20173;-51
2022/09/07 09:39:25;;;;;;;4.65;3.33;;;17.50;53.40;;;;;;5039878;28;20078;-54
2022/09/07 09:41:51;;;;;;;4.15;3.13;;;17.50;53.40;;;;;;5032494;28;20033;-54
2022/09/07 09:44:17;;;;;;;5.18;3.53;;;17.50;53.50;;;;;;5040979;28;20075;-52
2022/09/07 09:46:48;;;;;;;3.88;3.30;;;17.50;53.50;;;;;;5036976;28;20036;-52
2022/09/07 09:49:18;;;;;;;;;;;17.50;53.50;;;;;;5047967;28;20108;-54
2022/09/07 09:51:51;;;;;;;4.30;3.17;;;17.50;53.40;;;;;;5042386;28;19916;-55
2022/09/07 09:54:31;;;;;;;5.07;3.20;;;17.60;53.70;;;;;;5048254;28;20195;-54
2022/09/07 09:56:58;;;;;;;3.88;3.45;;;17.60;53.60;;;;;;5044299;28;20029;-54
2022/09/07 09:59:30;;;;;;;4.30;3.50;;;17.60;53.50;;;;;;5041568;28;20098;-55
2022/09/07 10:01:57;;;;;;;4.40;3.72;;;17.60;53.40;;;;;;5039481;28;20033;-54
2022/09/07 10:04:26;;;;;;;4.68;3.72;;;17.70;53.30;;;;;;5042655;28;20094;-54
2022/09/07 10:06:54;;;;;;;4.90;4.05;;;17.70;53.40;;;;;;5042049;28;20034;-54
2022/09/07 10:09:24;;;;;;;5.80;3.97;;;17.80;53.40;;;;;;5047112;28;20033;-55
2022/09/07 10:12:01;;;;;;;4.43;3.50;;;17.80;53.10;;;;;;5044565;28;20037;-55
2022/09/07 10:14:27;;;;;;;6.80;4.65;;;17.80;52.80;;;;;;5042389;28;21723;-54
2022/09/07 10:16:53;;;;;;;5.50;3.42;;;17.80;52.80;;;;;;5048869;28;20108;-53
2022/09/07 10:19:33;;;;;;;5.50;4.40;;;17.80;52.60;;;;;;5046220;28;20033;-55
2022/09/07 10:22:02;;;;;;;5.18;3.90;;;17.80;52.40;;;;;;5044300;28;20194;-55
2022/09/07 10:24:35;;;;;;;5.00;3.92;;;17.80;52.50;;;;;;5050847;28;20038;-54
2022/09/07 10:27:18;;;;;;;5.85;4.30;;;17.90;52.50;;;;;;5049231;28;20264;-53
2022/09/07 10:29:44;;;;;;;4.70;3.78;;;17.90;52.30;;;;;;5048207;28;20037;-56
2022/09/07 10:32:25;;;;;;;4.85;3.50;;;17.90;52.20;;;;;;5047579;28;20039;-55
2022/09/07 10:35:14;;;;;;;4.65;3.72;;;17.90;52.10;;;;;;5043232;28;20041;-55
2022/09/07 10:37:49;;;;;;;4.25;3.08;;;17.90;52.00;;;;;;5047226;28;20047;-56
2022/09/07 10:40:20;;;;;;;4.20;3.10;;;17.90;51.80;;;;;;5052109;28;20086;-55
2022/09/07 10:43:16;;;;;;;5.88;3.38;;;18.00;51.90;;;;;;5047216;28;20084;-55
2022/09/07 10:46:01;;;;;;;4.57;3.63;;;18.00;51.70;;;;;;5049036;28;22244;-54
2022/09/07 10:48:51;;;;;;;4.75;3.70;;;18.00;51.70;;;;;;5044069;28;20032;-55
2022/09/07 10:51:31;;;;;;;5.57;4.00;;;18.00;51.60;;;;;;5036917;28;20040;-55
2022/09/07 10:54:25;;;;;;;4.47;3.40;;;18.00;51.40;;;;;;5026114;28;20039;-55
2022/09/07 10:57:03;;;;;;;3.78;3.00;;;18.00;51.30;;;;;;5018397;28;20427;-53
2022/09/07 10:59:38;;;;;;;3.65;2.78;;;18.00;51.10;;;;;;5044012;28;20056;-56
2022/09/07 11:02:13;;;;;;;4.40;2.90;;;17.90;51.10;;;;;;5029826;28;20055;-55
2022/09/07 11:04:46;;;;;;;3.97;2.60;;;17.90;51.10;;;;;;5045235;28;20085;-54
2022/09/07 11:07:44;;;;;;;3.95;2.90;;;17.90;51.20;;;;;;5040093;28;20089;-53
2022/09/07 11:10:13;;;;;;;3.90;3.00;;;17.90;50.80;;;;;;5046843;28;20078;-51
2022/09/07 11:12:40;;;;;;;3.80;3.17;;;17.90;50.70;;;;;;5026767;28;20029;-51
2022/09/07 11:15:28;;;;;;;3.25;2.70;;;18.00;50.70;;;;;;5044095;28;20036;-54
2022/09/07 11:18:06;;;;;;;3.90;2.92;;;18.00;50.70;;;;;;5045039;28;20029;-53
2022/09/07 11:20:37;;;;;;;4.20;2.90;;;18.00;50.60;;;;;;5040117;28;20056;-52
2022/09/07 11:23:06;;;;;;;2.83;2.53;;;18.10;50.60;;;;;;5041781;28;20040;-54
2022/09/07 11:25:42;;;;;;;3.22;2.67;;;18.00;50.70;;;;;;5048606;28;20060;-51
2022/09/07 11:28:36;;;;;;;4.93;2.72;;;18.10;50.60;;;;;;5047117;28;20101;-52
2022/09/07 11:31:11;;;;;;;4.35;3.40;;;18.10;50.40;;;;;;5047139;28;20407;-50
2022/09/07 11:33:48;;;;;;;3.45;2.78;;;18.10;50.50;;;;;;5046838;28;20096;-51
2022/09/07 11:36:16;;;;;;;4.07;3.08;;;18.10;50.40;;;;;;5047766;28;20079;-52
2022/09/07 11:38:53;;;;;;;4.03;3.03;;;18.10;50.50;;;;;;5052097;28;20072;-52
2022/09/07 11:41:48;;;;;;;3.80;2.88;;;18.10;50.40;;;;;;5043287;28;20029;-50
2022/09/07 11:44:40;;;;;;;3.80;2.92;;;18.10;50.20;;;;;;5026591;28;20040;-52
2022/09/07 11:47:43;;;;;;;3.70;3.08;;;18.10;50.10;;;;;;5046945;28;20429;-53
2022/09/07 11:50:18;;;;;;;3.53;2.88;;;18.10;50.10;;;;;;5039183;28;20121;-53
2022/09/07 11:52:51;;;;;;;2.95;2.67;;;18.10;50.20;;;;;;5051283;28;20051;-51
2022/09/07 11:55:26;;;;;;;4.50;2.88;;;18.10;50.20;;;;;;5046962;28;20029;-54
2022/09/07 11:58:02;;;;;;;3.70;3.10;;;18.10;50.20;;;;;;5048753;28;20028;-55
2022/09/07 12:00:52;;;;;;;3.58;2.83;;;18.10;50.00;;;;;;5044818;28;20027;-52
2022/09/07 12:03:22;;;;;;;4.47;2.85;;;18.10;50.00;;;;;;5047310;28;20041;-52
2022/09/07 12:06:17;;;;;;;3.75;2.72;;;18.10;50.70;;;;;;5031723;28;20177;-53
2022/09/07 12:09:11;;;;;;;3.47;2.67;;;18.10;50.00;;;;;;5028131;28;20028;-50
2022/09/07 12:12:03;;;;;;;3.50;2.60;;;18.10;50.00;;;;;;5038759;28;20674;-53
2022/09/07 12:14:47;;;;;;;2.97;2.70;;;18.10;50.00;;;;;;5038352;28;20043;-52
2022/09/07 12:17:27;;;;;;;3.65;2.70;;;18.10;49.90;;;;;;5031885;28;20060;-55
2022/09/07 12:20:13;;;;;;;3.45;2.70;;;18.10;49.90;;;;;;5042077;28;20086;-54
2022/09/07 12:22:54;;;;;;;3.08;2.70;;;18.10;49.70;;;;;;5035784;28;20044;-51
2022/09/07 12:25:20;;;;;;;3.35;2.78;;;18.10;49.90;;;;;;5037248;28;20098;-52
2022/09/07 12:27:46;;;;;;;3.08;2.70;;;18.10;49.70;;;;;;5044290;28;20505;-52
2022/09/07 12:30:11;;;;;;;4.13;3.25;;;18.10;49.90;;;;;;5039475;28;20066;-53
2022/09/07 12:32:46;;;;;;;3.58;2.90;;;18.10;49.70;;;;;;5036141;28;20107;-54
2022/09/07 12:35:27;;;;;;;3.83;2.80;;;18.20;49.90;;;;;;5034506;28;20462;-53
2022/09/07 12:37:54;;;;;;;3.22;2.80;;;18.20;49.80;;;;;;5034121;28;20028;-53
2022/09/07 12:40:35;;;;;;;5.18;2.90;;;18.20;49.80;;;;;;5044739;28;20041;-56
2022/09/07 12:43:12;;;;;;;3.53;2.85;;;18.20;49.80;;;;;;5046142;28;20446;-55
2022/09/07 12:45:38;;;;;;;3.38;2.67;;;18.20;49.70;;;;;;5045593;28;20064;-56
2022/09/07 12:48:22;;;;;;;4.05;3.20;;;18.20;49.80;;;;;;5045841;28;20034;-56
2022/09/07 12:51:29;;;;;;;3.35;2.65;;;18.20;49.60;;;;;;5044005;28;20033;-53
2022/09/07 12:54:13;;;;;;;3.00;2.58;;;18.20;49.60;;;;;;5034525;28;20041;-55
2022/09/07 12:56:58;;;;;;;2.60;2.33;;;18.20;49.70;;;;;;5037453;28;20033;-51
2022/09/07 12:59:44;;;;;;;3.35;3.00;;;18.20;49.70;;;;;;5034941;28;20114;-53
2022/09/07 13:02:21;;;;;;;4.00;2.88;;;18.20;49.60;;;;;;5036023;28;21056;-54
2022/09/07 13:05:28;;;;;;;3.40;2.90;;;18.20;49.70;;;;;;5036571;28;20044;-54
2022/09/07 13:08:21;;;;;;;3.20;2.90;;;18.20;49.80;;;;;;5048455;28;20032;-54
2022/09/07 13:10:47;;;;;;;3.60;2.97;;;18.20;49.70;;;;;;5042320;28;20039;-54
2022/09/07 13:13:28;;;;;;;3.92;2.92;;;18.20;49.90;;;;;;5040317;28;20041;-50
2022/09/07 13:16:00;;;;;;;3.83;2.65;;;18.10;49.80;;;;;;5040828;28;20024;-54